Upstream stations:
Downstream station:
SHEF ID: SNCO2 North Canadian River at Shawnee,
STATION TYPE:
STAGE RIV-FLOW BAT-LOAD
ft cfs volt
Ccp-Rev Ccp-Rev Ccp-Rev
(US/Central)
10/19 00:00 9.97 284 12.65
10/19 01:00 9.96 281 12.65
10/19 02:00 9.96 281 12.65
10/19 03:00 9.96 281 12.65
10/19 04:00 9.96 281 12.60
10/19 05:00 9.95 278 12.60
10/19 06:00 9.95 278 12.60
10/19 07:00 9.95 278 12.54
10/19 08:00 9.95 278 12.54
10/19 09:00 9.95 278 13.07
10/19 10:00 9.95 278 13.48
10/19 11:00 9.93 271 13.48
10/19 12:00 9.91 265 13.48
10/19 13:00 9.90 262 13.83
10/19 14:00 9.91 265 13.53
10/19 15:00 9.88 256 13.42
10/19 16:00 9.86 250 13.48
10/19 17:00 9.86 250 13.24
10/19 18:00 9.86 250 13.24
10/19 19:00 9.86 250 12.95
10/19 20:00 9.87 253 12.83
10/19 21:00 9.87 253 12.77
10/19 22:00 9.87 253 12.71
10/19 23:00 ---- ---- ----